Time,TemperatureF,DewpointF,PressureIn,WindDirection,WindDirectionDegrees,WindSpeedMPH,WindSpeedGustMPH,Humidity,HourlyPrecipIn,Conditions,Clouds,dailyrainin,SoftwareType,DateUTC
2013-01-07 00:00:00,42.5,32.3,30.16,West,281,0.0,2.0,67,0.00,,,0.02,Wunderground v.1.15,2013-01-07 05:00:00,
2013-01-07 00:03:00,42.5,32.3,30.16,WNW,292,3.0,10.0,67,0.00,,,-99.99,WeatherLink 6.0.0,2013-01-07 05:03:00,
2013-01-07 00:08:00,42.8,32.6,30.15,ENE,61,3.0,4.0,67,0.00,,,0.00,Wunderground v.1.15,2013-01-07 05:08:00,
2013-01-07 00:13:00,42.9,32.3,30.16,NNW,329,0.0,2.0,66,0.00,,,0.00,Wunderground v.1.15,2013-01-07 05:13:00,
2013-01-07 00:18:00,42.9,32.3,30.16,NW,313,2.0,5.0,66,0.00,,,0.00,Wunderground v.1.15,2013-01-07 05:18:00,
2013-01-07 00:24:00,43.1,32.5,30.16,NW,315,1.0,1.0,66,0.00,,,0.00,Wunderground v.1.15,2013-01-07 05:24:00,
2013-01-07 00:29:00,43.1,32.5,30.16,ENE,74,0.0,2.0,66,0.00,,,0.00,Wunderground v.1.15,2013-01-07 05:29:00,
2013-01-07 00:34:00,43.0,32.4,30.15,NW,322,3.0,4.0,66,0.00,,,0.00,Wunderground v.1.15,2013-01-07 05:34:00,
2013-01-07 00:40:00,43.3,32.3,30.15,WNW,297,0.0,3.0,65,0.00,,,0.00,Wunderground v.1.15,2013-01-07 05:40:00,
2013-01-07 00:45:00,43.4,32.0,30.15,NW,325,0.0,4.0,64,0.00,,,0.00,Wunderground v.1.15,2013-01-07 05:45:00,
2013-01-07 00:51:00,43.3,32.3,30.16,NW,310,4.0,4.0,65,0.00,,,0.00,Wunderground v.1.15,2013-01-07 05:51:00,
2013-01-07 00:56:00,43.3,31.9,30.15,NW,319,4.0,4.0,64,0.00,,,0.00,Wunderground v.1.15,2013-01-07 05:56:00,
2013-01-07 01:02:00,43.3,31.9,30.15,NW,304,2.0,5.0,64,0.00,,,0.00,Wunderground v.1.15,2013-01-07 06:02:00,
2013-01-07 01:07:00,43.4,32.0,30.15,NW,305,0.0,5.0,64,0.00,,,0.00,Wunderground v.1.15,2013-01-07 06:07:00,
2013-01-07 01:12:00,43.1,32.1,30.15,WNW,294,3.0,3.0,65,0.00,,,0.00,Wunderground v.1.15,2013-01-07 06:12:00,
2013-01-07 01:18:00,42.9,31.9,30.15,NW,309,0.0,3.0,65,0.00,,,0.00,Wunderground v.1.15,2013-01-07 06:18:00,
2013-01-07 01:23:00,42.6,31.7,30.15,WNW,292,0.0,3.0,65,0.00,,,0.00,Wunderground v.1.15,2013-01-07 06:23:00,
2013-01-07 01:29:00,41.9,31.4,30.16,WNW,292,0.0,3.0,66,0.00,,,0.00,Wunderground v.1.15,2013-01-07 06:29:00,
2013-01-07 01:34:00,41.4,31.3,30.16,WNW,294,0.0,0.0,67,0.00,,,0.00,Wunderground v.1.15,2013-01-07 06:34:00,
2013-01-07 01:39:00,40.8,31.1,30.15,WNW,294,0.0,2.0,68,0.00,,,0.00,Wunderground v.1.15,2013-01-07 06:39:00,
2013-01-07 01:45:00,40.5,30.8,30.16,ENE,74,1.0,1.0,68,0.00,,,0.00,Wunderground v.1.15,2013-01-07 06:45:00,
2013-01-07 01:50:00,40.3,30.9,30.17,ENE,74,0.0,1.0,69,0.00,,,0.00,Wunderground v.1.15,2013-01-07 06:50:00,
2013-01-07 01:56:00,40.0,30.6,30.16,NW,307,0.0,3.0,69,0.00,,,0.00,Wunderground v.1.15,2013-01-07 06:56:00,
2013-01-07 02:01:00,40.2,31.5,30.17,WNW,300,3.0,5.0,71,0.00,,,0.00,Wunderground v.1.15,2013-01-07 07:01:00,
2013-01-07 02:06:00,40.5,30.8,30.17,WNW,298,1.0,5.0,68,0.00,,,0.00,Wunderground v.1.15,2013-01-07 07:06:00,
2013-01-07 02:11:00,40.7,31.0,30.17,NW,307,3.0,3.0,68,0.00,,,0.00,Wunderground v.1.15,2013-01-07 07:11:00,
2013-01-07 02:16:00,40.9,30.8,30.17,WNW,298,1.0,5.0,67,0.00,,,0.00,Wunderground v.1.15,2013-01-07 07:16:00,
2013-01-07 02:21:00,40.9,31.1,30.17,WNW,296,4.0,6.0,68,0.00,,,0.00,Wunderground v.1.15,2013-01-07 07:21:00,
2013-01-07 02:26:00,41.0,30.9,30.18,WNW,287,6.0,7.0,67,0.00,,,0.00,Wunderground v.1.15,2013-01-07 07:26:00,
2013-01-07 02:31:00,41.1,31.3,30.18,NW,312,4.0,5.0,68,0.00,,,0.00,Wunderground v.1.15,2013-01-07 07:31:00,
2013-01-07 02:36:00,41.1,31.0,30.18,NW,311,2.0,9.0,67,0.00,,,0.00,Wunderground v.1.15,2013-01-07 07:36:00,
2013-01-07 02:41:00,41.3,30.8,30.18,NW,308,2.0,5.0,66,0.00,,,0.00,Wunderground v.1.15,2013-01-07 07:41:00,
2013-01-07 02:46:00,41.5,31.0,30.18,WNW,290,5.0,10.0,66,0.00,,,0.00,Wunderground v.1.15,2013-01-07 07:46:00,
2013-01-07 02:51:00,41.6,30.7,30.18,NE,40,1.0,3.0,65,0.00,,,0.00,Wunderground v.1.15,2013-01-07 07:51:00,
2013-01-07 02:56:00,41.6,30.7,30.19,WNW,291,0.0,3.0,65,0.00,,,0.00,Wunderground v.1.15,2013-01-07 07:56:00,
2013-01-07 03:01:00,41.3,30.8,30.19,NW,308,0.0,4.0,66,0.00,,,0.00,Wunderground v.1.15,2013-01-07 08:01:00,
2013-01-07 03:06:00,41.2,30.7,30.20,WNW,302,2.0,7.0,66,0.00,,,0.00,Wunderground v.1.15,2013-01-07 08:06:00,
2013-01-07 03:11:00,41.1,30.6,30.19,WNW,291,2.0,5.0,66,0.00,,,0.00,Wunderground v.1.15,2013-01-07 08:11:00,
2013-01-07 03:16:00,41.1,30.6,30.19,NW,313,3.0,6.0,66,0.00,,,0.00,Wunderground v.1.15,2013-01-07 08:16:00,
2013-01-07 03:21:00,41.0,30.9,30.20,WNW,296,0.0,3.0,67,0.00,,,0.00,Wunderground v.1.15,2013-01-07 08:21:00,
2013-01-07 03:27:00,40.9,30.8,30.20,NW,319,0.0,4.0,67,0.00,,,0.00,Wunderground v.1.15,2013-01-07 08:27:00,
2013-01-07 03:30:00,40.8,31.1,30.19,WNW,292,2.0,7.0,68,0.00,,,-99.99,WeatherLink 6.0.0,2013-01-07 08:30:00,
2013-01-07 03:32:00,40.7,30.6,30.19,NNW,342,2.0,7.0,67,0.00,,,0.00,Wunderground v.1.15,2013-01-07 08:32:00,
2013-01-07 03:37:00,40.6,30.9,30.20,NW,306,3.0,7.0,68,0.00,,,0.00,Wunderground v.1.15,2013-01-07 08:37:00,
2013-01-07 03:42:00,40.5,30.8,30.19,NW,307,3.0,6.0,68,0.00,,,0.00,Wunderground v.1.15,2013-01-07 08:42:00,
2013-01-07 03:47:00,40.6,30.9,30.20,NW,313,1.0,7.0,68,0.00,,,0.00,Wunderground v.1.15,2013-01-07 08:47:00,
2013-01-07 03:52:00,40.5,30.8,30.20,NNE,28,3.0,3.0,68,0.00,,,0.00,Wunderground v.1.15,2013-01-07 08:52:00,
2013-01-07 03:57:00,40.4,30.7,30.21,NW,313,0.0,4.0,68,0.00,,,0.00,Wunderground v.1.15,2013-01-07 08:57:00,
2013-01-07 04:02:00,40.4,30.3,30.21,NW,306,3.0,10.0,67,0.00,,,0.00,Wunderground v.1.15,2013-01-07 09:02:00,
2013-01-07 04:07:00,40.3,30.2,30.20,NW,315,5.0,10.0,67,0.00,,,0.00,Wunderground v.1.15,2013-01-07 09:07:00,
2013-01-07 04:12:00,40.2,30.1,30.20,WNW,302,1.0,5.0,67,0.00,,,0.00,Wunderground v.1.15,2013-01-07 09:12:00,
2013-01-07 04:17:00,40.1,30.4,30.21,WNW,298,0.0,5.0,68,0.00,,,0.00,Wunderground v.1.15,2013-01-07 09:17:00,
2013-01-07 04:22:00,39.9,30.2,30.21,WNW,299,0.0,1.0,68,0.00,,,0.00,Wunderground v.1.15,2013-01-07 09:22:00,
2013-01-07 04:27:00,39.3,30.0,30.20,WNW,298,0.0,1.0,69,0.00,,,0.00,Wunderground v.1.15,2013-01-07 09:27:00,
2013-01-07 04:32:00,38.9,29.6,30.20,NW,309,0.0,0.0,69,0.00,,,0.00,Wunderground v.1.15,2013-01-07 09:32:00,
2013-01-07 04:37:00,38.7,30.1,30.21,NW,309,1.0,2.0,71,0.00,,,0.00,Wunderground v.1.15,2013-01-07 09:37:00,
2013-01-07 04:42:00,38.6,30.4,30.21,NW,309,0.0,2.0,72,0.00,,,0.00,Wunderground v.1.15,2013-01-07 09:42:00,
2013-01-07 04:47:00,38.6,30.0,30.21,NW,309,0.0,2.0,71,0.00,,,0.00,Wunderground v.1.15,2013-01-07 09:47:00,
2013-01-07 04:52:00,38.2,29.6,30.21,NW,309,0.0,0.0,71,0.00,,,0.00,Wunderground v.1.15,2013-01-07 09:52:00,
2013-01-07 04:57:00,37.6,29.4,30.21,NW,309,0.0,0.0,72,0.00,,,0.00,Wunderground v.1.15,2013-01-07 09:57:00,
2013-01-07 05:02:00,37.0,29.5,30.22,NW,309,0.0,0.0,74,0.00,,,0.00,Wunderground v.1.15,2013-01-07 10:02:00,
2013-01-07 05:07:00,36.4,28.9,30.22,NW,309,0.0,0.0,74,0.00,,,0.00,Wunderground v.1.15,2013-01-07 10:07:00,
2013-01-07 05:12:00,36.0,28.8,30.23,NW,309,0.0,0.0,75,0.00,,,0.00,Wunderground v.1.15,2013-01-07 10:12:00,
2013-01-07 05:17:00,35.7,28.9,30.23,NW,309,0.0,0.0,76,0.00,,,0.00,Wunderground v.1.15,2013-01-07 10:17:00,
2013-01-07 05:22:00,35.3,29.1,30.23,NW,309,0.0,0.0,78,0.00,,,0.00,Wunderground v.1.15,2013-01-07 10:22:00,
2013-01-07 05:27:00,34.9,28.7,30.24,NW,309,0.0,0.0,78,0.00,,,0.00,Wunderground v.1.15,2013-01-07 10:27:00,
2013-01-07 05:32:00,34.6,28.4,30.25,NW,309,0.0,0.0,78,0.00,,,0.00,Wunderground v.1.15,2013-01-07 10:32:00,
2013-01-07 05:37:00,34.4,28.6,30.25,NW,309,1.0,2.0,79,0.00,,,0.00,Wunderground v.1.15,2013-01-07 10:37:00,
2013-01-07 05:42:00,34.5,29.0,30.24,NW,310,0.0,1.0,80,0.00,,,0.00,Wunderground v.1.15,2013-01-07 10:42:00,
2013-01-07 05:47:00,34.7,30.7,30.25,NW,310,0.0,1.0,85,0.00,,,0.00,Wunderground v.1.15,2013-01-07 10:47:00,
2013-01-07 05:52:00,34.6,29.1,30.25,NW,310,0.0,0.0,80,0.00,,,0.00,Wunderground v.1.15,2013-01-07 10:52:00,
2013-01-07 05:57:00,33.6,28.1,30.25,NW,309,0.0,0.0,80,0.00,,,0.00,Wunderground v.1.15,2013-01-07 10:57:00,
2013-01-07 06:02:00,33.1,28.2,30.25,NW,309,1.0,1.0,82,0.00,,,0.00,Wunderground v.1.15,2013-01-07 11:02:00,
2013-01-07 06:07:00,32.8,27.9,30.25,NW,309,0.0,1.0,82,0.00,,,0.00,Wunderground v.1.15,2013-01-07 11:07:00,
2013-01-07 06:12:00,32.5,27.6,30.26,NW,309,1.0,4.0,82,0.00,,,0.00,Wunderground v.1.15,2013-01-07 11:12:00,
2013-01-07 06:17:00,32.2,27.6,30.27,South,182,0.0,4.0,83,0.00,,,0.00,Wunderground v.1.15,2013-01-07 11:17:00,
2013-01-07 06:22:00,32.4,28.1,30.27,South,187,0.0,1.0,84,0.00,,,0.00,Wunderground v.1.15,2013-01-07 11:22:00,
2013-01-07 06:27:00,32.6,28.0,30.27,South,187,0.0,1.0,83,0.00,,,0.00,Wunderground v.1.15,2013-01-07 11:27:00,
2013-01-07 06:32:00,32.8,28.2,30.28,South,187,0.0,0.0,83,0.00,,,0.00,Wunderground v.1.15,2013-01-07 11:32:00,
2013-01-07 06:37:00,32.8,28.2,30.28,South,187,0.0,0.0,83,0.00,,,0.00,Wunderground v.1.15,2013-01-07 11:37:00,
2013-01-07 06:42:00,32.6,27.7,30.28,South,187,0.0,0.0,82,0.00,,,0.00,Wunderground v.1.15,2013-01-07 11:42:00,
2013-01-07 06:47:00,32.3,27.7,30.28,South,187,0.0,0.0,83,0.00,,,0.00,Wunderground v.1.15,2013-01-07 11:47:00,
2013-01-07 06:52:00,32.0,27.7,30.29,South,187,0.0,0.0,84,0.00,,,0.00,Wunderground v.1.15,2013-01-07 11:52:00,
2013-01-07 06:57:00,31.7,27.4,30.30,South,187,0.0,0.0,84,0.00,,,0.00,Wunderground v.1.15,2013-01-07 11:57:00,
2013-01-07 07:02:00,31.4,27.1,30.30,South,187,0.0,0.0,84,0.00,,,0.00,Wunderground v.1.15,2013-01-07 12:02:00,
2013-01-07 07:07:00,31.2,27.2,30.30,South,187,0.0,0.0,85,0.00,,,0.00,Wunderground v.1.15,2013-01-07 12:07:00,
2013-01-07 07:12:00,31.1,27.1,30.31,South,187,0.0,0.0,85,0.00,,,0.00,Wunderground v.1.15,2013-01-07 12:12:00,
2013-01-07 07:17:00,31.0,27.6,30.31,South,187,0.0,0.0,87,0.00,,,0.00,Wunderground v.1.15,2013-01-07 12:17:00,
2013-01-07 07:22:00,30.9,28.9,30.31,South,187,0.0,0.0,92,0.00,,,0.00,Wunderground v.1.15,2013-01-07 12:22:00,
2013-01-07 07:27:00,30.7,27.0,30.31,South,187,0.0,0.0,86,0.00,,,0.00,Wunderground v.1.15,2013-01-07 12:27:00,
2013-01-07 07:32:00,30.7,27.0,30.31,South,187,0.0,1.0,86,0.00,,,0.00,Wunderground v.1.15,2013-01-07 12:32:00,
2013-01-07 07:38:00,30.7,27.3,30.32,South,187,0.0,1.0,87,0.00,,,0.00,Wunderground v.1.15,2013-01-07 12:38:00,
2013-01-07 07:43:00,30.5,27.1,30.32,South,187,0.0,0.0,87,0.00,,,0.00,Wunderground v.1.15,2013-01-07 12:43:00,
2013-01-07 07:48:00,30.3,26.9,30.33,South,187,0.0,0.0,87,0.00,,,0.00,Wunderground v.1.15,2013-01-07 12:48:00,
2013-01-07 07:53:00,30.4,27.3,30.33,South,187,0.0,0.0,88,0.00,,,0.00,Wunderground v.1.15,2013-01-07 12:53:00,
2013-01-07 07:58:00,30.6,27.5,30.33,South,187,0.0,0.0,88,0.00,,,0.00,Wunderground v.1.15,2013-01-07 12:58:00,
2013-01-07 08:00:00,30.6,27.2,30.33,South,180,0.0,1.0,87,0.00,,,-99.99,WeatherLink 6.0.0,2013-01-07 13:00:00,
2013-01-07 08:03:00,30.6,27.2,30.34,South,187,0.0,0.0,87,0.00,,,0.00,Wunderground v.1.15,2013-01-07 13:03:00,
2013-01-07 08:08:00,30.9,27.8,30.34,South,187,0.0,1.0,88,0.00,,,0.00,Wunderground v.1.15,2013-01-07 13:08:00,
2013-01-07 08:13:00,31.3,27.9,30.34,South,187,0.0,1.0,87,0.00,,,0.00,Wunderground v.1.15,2013-01-07 13:13:00,
2013-01-07 08:18:00,31.8,28.7,30.35,South,187,0.0,1.0,88,0.00,,,0.00,Wunderground v.1.15,2013-01-07 13:18:00,
2013-01-07 08:23:00,32.2,28.8,30.35,South,187,0.0,0.0,87,0.00,,,0.00,Wunderground v.1.15,2013-01-07 13:23:00,
2013-01-07 08:28:00,33.1,29.4,30.35,South,187,0.0,0.0,86,0.00,,,0.00,Wunderground v.1.15,2013-01-07 13:28:00,
2013-01-07 08:33:00,33.4,29.4,30.35,South,187,0.0,0.0,85,0.00,,,0.00,Wunderground v.1.15,2013-01-07 13:33:00,
2013-01-07 08:38:00,33.9,29.6,30.35,South,187,0.0,0.0,84,0.00,,,0.00,Wunderground v.1.15,2013-01-07 13:38:00,
2013-01-07 08:43:00,34.8,31.3,30.35,South,187,0.0,0.0,87,0.00,,,0.00,Wunderground v.1.15,2013-01-07 13:43:00,
2013-01-07 08:48:00,35.8,30.8,30.36,South,187,0.0,0.0,82,0.00,,,0.00,Wunderground v.1.15,2013-01-07 13:48:00,
2013-01-07 08:53:00,37.0,30.8,30.36,South,187,0.0,0.0,78,0.00,,,0.00,Wunderground v.1.15,2013-01-07 13:53:00,
2013-01-07 08:58:00,38.3,33.0,30.36,South,187,0.0,0.0,81,0.00,,,0.00,Wunderground v.1.15,2013-01-07 13:58:00,
2013-01-07 09:00:00,38.6,32.3,30.36,South,180,0.0,1.0,78,0.00,,,-99.99,WeatherLink 6.0.0,2013-01-07 14:00:00,
2013-01-07 09:03:00,38.9,32.0,30.36,South,187,0.0,1.0,76,0.00,,,0.00,Wunderground v.1.15,2013-01-07 14:03:00,
2013-01-07 09:08:00,39.3,31.7,30.36,South,187,0.0,1.0,74,0.00,,,0.00,Wunderground v.1.15,2013-01-07 14:08:00,
2013-01-07 09:13:00,39.9,31.3,30.37,South,186,2.0,2.0,71,0.00,,,0.00,Wunderground v.1.15,2013-01-07 14:13:00,
2013-01-07 09:18:00,40.3,30.9,30.37,South,183,0.0,2.0,69,0.00,,,0.00,Wunderground v.1.15,2013-01-07 14:18:00,
2013-01-07 09:23:00,40.6,31.2,30.37,South,183,0.0,1.0,69,0.00,,,0.00,Wunderground v.1.15,2013-01-07 14:23:00,
2013-01-07 09:28:00,41.3,31.5,30.37,South,183,0.0,1.0,68,0.00,,,0.00,Wunderground v.1.15,2013-01-07 14:28:00,
2013-01-07 09:33:00,41.8,30.9,30.38,SE,124,5.0,7.0,65,0.00,,,0.00,Wunderground v.1.15,2013-01-07 14:33:00,
2013-01-07 09:38:00,41.8,31.6,30.38,ESE,119,0.0,7.0,67,0.00,,,0.00,Wunderground v.1.15,2013-01-07 14:38:00,
2013-01-07 09:43:00,41.7,30.8,30.38,East,98,2.0,5.0,65,0.00,,,0.00,Wunderground v.1.15,2013-01-07 14:43:00,
2013-01-07 09:48:00,42.0,31.8,30.38,ESE,106,4.0,5.0,67,0.00,,,0.00,Wunderground v.1.15,2013-01-07 14:48:00,
2013-01-07 09:53:00,42.4,31.5,30.39,SE,132,0.0,5.0,65,0.00,,,0.00,Wunderground v.1.15,2013-01-07 14:53:00,
2013-01-07 09:58:00,42.3,31.0,30.39,ESE,105,4.0,6.0,64,0.00,,,0.00,Wunderground v.1.15,2013-01-07 14:58:00,
2013-01-07 10:04:00,42.2,30.5,30.39,ESE,112,2.0,7.0,63,0.00,,,-99.99,WeatherLink 6.0.0,2013-01-07 15:04:00,
2013-01-07 10:09:00,41.8,31.3,30.39,East,96,3.0,9.0,66,0.00,,,0.00,Wunderground v.1.15,2013-01-07 15:09:00,
2013-01-07 10:14:00,42.1,31.2,30.39,East,93,5.0,9.0,65,0.00,,,0.00,Wunderground v.1.15,2013-01-07 15:14:00,
2013-01-07 10:19:00,42.5,31.6,30.39,ENE,70,4.0,9.0,65,0.00,,,0.00,Wunderground v.1.15,2013-01-07 15:19:00,
2013-01-07 10:24:00,42.6,31.7,30.40,East,92,2.0,6.0,65,0.00,,,0.00,Wunderground v.1.15,2013-01-07 15:24:00,
2013-01-07 10:29:00,43.0,31.6,30.39,ESE,105,3.0,6.0,64,0.00,,,0.00,Wunderground v.1.15,2013-01-07 15:29:00,
2013-01-07 10:34:00,43.0,30.9,30.40,East,101,3.0,9.0,62,0.00,,,0.00,Wunderground v.1.15,2013-01-07 15:34:00,
2013-01-07 10:39:00,43.2,31.4,30.39,East,94,2.0,9.0,63,0.00,,,0.00,Wunderground v.1.15,2013-01-07 15:39:00,
2013-01-07 10:44:00,44.0,32.6,30.39,East,95,2.0,3.0,64,0.00,,,0.00,Wunderground v.1.15,2013-01-07 15:44:00,
2013-01-07 10:49:00,44.5,31.9,30.39,East,101,4.0,7.0,61,0.00,,,0.00,Wunderground v.1.15,2013-01-07 15:49:00,
2013-01-07 10:54:00,44.5,31.9,30.39,NE,53,1.0,6.0,61,0.00,,,0.00,Wunderground v.1.15,2013-01-07 15:54:00,
2013-01-07 10:59:00,45.0,32.8,30.39,ESE,109,1.0,6.0,62,0.00,,,0.00,Wunderground v.1.15,2013-01-07 15:59:00,
2013-01-07 11:04:00,45.5,31.6,30.38,East,84,3.0,5.0,58,0.00,,,0.00,Wunderground v.1.15,2013-01-07 16:04:00,
2013-01-07 11:09:00,45.5,31.6,30.39,ENE,71,1.0,5.0,58,0.00,,,0.00,Wunderground v.1.15,2013-01-07 16:09:00,
2013-01-07 11:14:00,46.1,31.3,30.38,NNE,28,1.0,2.0,56,0.00,,,0.00,Wunderground v.1.15,2013-01-07 16:14:00,
2013-01-07 11:19:00,46.6,31.7,30.38,SE,144,0.0,4.0,56,0.00,,,0.00,Wunderground v.1.15,2013-01-07 16:19:00,
2013-01-07 11:24:00,46.7,31.8,30.37,East,101,0.0,3.0,56,0.00,,,0.00,Wunderground v.1.15,2013-01-07 16:24:00,
2013-01-07 11:29:00,47.0,32.1,30.37,ESE,113,0.0,4.0,56,0.00,,,0.00,Wunderground v.1.15,2013-01-07 16:29:00,
2013-01-07 11:34:00,47.8,33.7,30.37,SE,131,3.0,5.0,58,0.00,,,0.00,Wunderground v.1.15,2013-01-07 16:34:00,
2013-01-07 11:39:00,47.7,33.2,30.37,ESE,103,1.0,5.0,57,0.00,,,0.00,Wunderground v.1.15,2013-01-07 16:39:00,
2013-01-07 11:44:00,47.6,31.8,30.36,ESE,111,4.0,6.0,54,0.00,,,0.00,Wunderground v.1.15,2013-01-07 16:44:00,
2013-01-07 11:49:00,47.8,31.9,30.36,East,84,0.0,6.0,54,0.00,,,0.00,Wunderground v.1.15,2013-01-07 16:49:00,
2013-01-07 11:54:00,48.1,32.2,30.36,East,92,1.0,3.0,54,0.00,,,0.00,Wunderground v.1.15,2013-01-07 16:54:00,
2013-01-07 11:59:00,48.8,31.9,30.35,East,99,2.0,4.0,52,0.00,,,0.00,Wunderground v.1.15,2013-01-07 16:59:00,
2013-01-07 12:04:00,49.0,32.1,30.35,East,82,0.0,4.0,52,0.00,,,0.00,Wunderground v.1.15,2013-01-07 17:04:00,
2013-01-07 12:09:00,49.2,31.8,30.35,ESE,108,3.0,6.0,51,0.00,,,0.00,Wunderground v.1.15,2013-01-07 17:09:00,
2013-01-07 12:14:00,49.3,32.4,30.34,ESE,111,0.0,5.0,52,0.00,,,0.00,Wunderground v.1.15,2013-01-07 17:14:00,
2013-01-07 12:19:00,49.7,33.2,30.34,ESE,110,0.0,5.0,53,0.00,,,0.00,Wunderground v.1.15,2013-01-07 17:19:00,
2013-01-07 12:24:00,50.0,31.1,30.34,NNE,17,2.0,4.0,48,0.00,,,0.00,Wunderground v.1.15,2013-01-07 17:24:00,
2013-01-07 12:29:00,49.5,31.6,30.34,East,99,0.0,8.0,50,0.00,,,0.00,Wunderground v.1.15,2013-01-07 17:29:00,
2013-01-07 12:34:00,49.7,31.3,30.34,NNE,27,4.0,5.0,49,0.00,,,0.00,Wunderground v.1.15,2013-01-07 17:34:00,
2013-01-07 12:39:00,49.4,32.0,30.34,NNW,348,0.0,2.0,51,0.00,,,0.00,Wunderground v.1.15,2013-01-07 17:39:00,
2013-01-07 12:44:00,49.8,31.4,30.33,SSW,194,1.0,2.0,49,0.00,,,0.00,Wunderground v.1.15,2013-01-07 17:44:00,
2013-01-07 12:49:00,50.6,31.1,30.33,SE,125,0.0,2.0,47,0.00,,,0.00,Wunderground v.1.15,2013-01-07 17:49:00,
2013-01-07 12:54:00,51.2,31.6,30.33,ESE,107,2.0,5.0,47,0.00,,,0.00,Wunderground v.1.15,2013-01-07 17:54:00,
2013-01-07 13:00:00,51.0,32.5,30.33,ESE,117,2.0,2.0,49,0.00,,,0.00,Wunderground v.1.15,2013-01-07 18:00:00,
2013-01-07 13:05:00,51.1,31.6,30.33,SE,128,2.0,5.0,47,0.00,,,0.00,Wunderground v.1.15,2013-01-07 18:05:00,
2013-01-07 13:10:00,50.5,32.0,30.33,SSE,162,1.0,2.0,49,0.00,,,0.00,Wunderground v.1.15,2013-01-07 18:10:00,
2013-01-07 13:15:00,50.7,31.2,30.33,SSE,162,0.0,2.0,47,0.00,,,0.00,Wunderground v.1.15,2013-01-07 18:15:00,
2013-01-07 13:20:00,51.2,31.1,30.33,ENE,64,0.0,0.0,46,0.00,,,0.00,Wunderground v.1.15,2013-01-07 18:20:00,
2013-01-07 13:25:00,51.9,32.8,30.32,SE,142,4.0,6.0,48,0.00,,,0.00,Wunderground v.1.15,2013-01-07 18:25:00,
2013-01-07 13:30:00,51.4,32.3,30.33,ESE,117,0.0,2.0,48,0.00,,,0.00,Wunderground v.1.15,2013-01-07 18:30:00,
2013-01-07 13:35:00,51.7,32.6,30.32,ESE,122,3.0,4.0,48,0.00,,,0.00,Wunderground v.1.15,2013-01-07 18:35:00,
2013-01-07 13:40:00,51.8,32.7,30.32,ESE,107,1.0,3.0,48,0.00,,,0.00,Wunderground v.1.15,2013-01-07 18:40:00,
2013-01-07 13:45:00,52.0,31.8,30.32,SE,129,2.0,9.0,46,0.00,,,0.00,Wunderground v.1.15,2013-01-07 18:45:00,
2013-01-07 13:50:00,51.5,31.9,30.32,ENE,73,3.0,3.0,47,0.00,,,0.00,Wunderground v.1.15,2013-01-07 18:50:00,
2013-01-07 13:55:00,51.5,34.0,30.32,East,88,0.0,7.0,51,0.00,,,0.00,Wunderground v.1.15,2013-01-07 18:55:00,
2013-01-07 14:00:00,52.5,33.4,30.32,East,100,0.0,2.0,48,0.00,,,0.00,Wunderground v.1.15,2013-01-07 19:00:00,
2013-01-07 14:05:00,53.5,34.3,30.31,East,100,1.0,2.0,48,0.00,,,0.00,Wunderground v.1.15,2013-01-07 19:05:00,
2013-01-07 14:10:00,54.4,35.1,30.31,East,100,1.0,2.0,48,0.00,,,0.00,Wunderground v.1.15,2013-01-07 19:10:00,
2013-01-07 14:15:00,53.3,32.5,30.31,ESE,120,3.0,7.0,45,0.00,,,0.00,Wunderground v.1.15,2013-01-07 19:15:00,
2013-01-07 14:20:00,52.7,32.5,30.31,ESE,121,0.0,2.0,46,0.00,,,0.00,Wunderground v.1.15,2013-01-07 19:20:00,
2013-01-07 14:25:00,52.6,32.4,30.31,SSE,165,1.0,4.0,46,0.00,,,0.00,Wunderground v.1.15,2013-01-07 19:25:00,
2013-01-07 14:30:00,52.9,33.7,30.31,SE,126,3.0,5.0,48,0.00,,,0.00,Wunderground v.1.15,2013-01-07 19:30:00,
2013-01-07 14:35:00,52.5,32.8,30.31,SW,222,0.0,5.0,47,0.00,,,0.00,Wunderground v.1.15,2013-01-07 19:35:00,
2013-01-07 14:40:00,52.3,32.1,30.31,ESE,113,5.0,9.0,46,0.00,,,0.00,Wunderground v.1.15,2013-01-07 19:40:00,
2013-01-07 14:45:00,51.8,32.7,30.31,East,101,4.0,9.0,48,0.00,,,0.00,Wunderground v.1.15,2013-01-07 19:45:00,
2013-01-07 14:50:00,51.9,32.3,30.32,NNW,328,0.0,3.0,47,0.00,,,0.00,Wunderground v.1.15,2013-01-07 19:50:00,
2013-01-07 14:55:00,51.9,32.3,30.31,NNE,17,0.0,3.0,47,0.00,,,0.00,Wunderground v.1.15,2013-01-07 19:55:00,
2013-01-07 15:00:00,52.0,31.8,30.32,SE,130,7.0,10.0,46,0.00,,,0.00,Wunderground v.1.15,2013-01-07 20:00:00,
2013-01-07 15:06:00,51.1,31.6,30.32,ENE,78,0.0,10.0,47,0.00,,,0.00,Wunderground v.1.15,2013-01-07 20:06:00,
2013-01-07 15:11:00,50.7,30.7,30.32,ESE,108,3.0,6.0,46,0.00,,,0.00,Wunderground v.1.15,2013-01-07 20:11:00,
2013-01-07 15:16:00,50.5,31.5,30.32,SSE,152,0.0,6.0,48,0.00,,,0.00,Wunderground v.1.15,2013-01-07 20:16:00,
2013-01-07 15:19:00,50.7,31.7,30.32,SE,142,1.0,6.0,48,0.00,,,0.00,Wunderground v.1.15,2013-01-07 20:19:00,
2013-01-07 15:24:00,50.9,30.8,30.32,SE,127,1.0,6.0,46,0.00,,,0.00,Wunderground v.1.15,2013-01-07 20:24:00,
2013-01-07 15:29:00,50.6,31.1,30.32,ESE,103,3.0,6.0,47,0.00,,,0.00,Wunderground v.1.15,2013-01-07 20:29:00,
2013-01-07 15:34:00,50.5,31.5,30.32,ESE,111,0.0,3.0,48,0.00,,,0.00,Wunderground v.1.15,2013-01-07 20:34:00,
2013-01-07 15:39:00,50.4,31.4,30.32,East,94,2.0,5.0,48,0.00,,,0.00,Wunderground v.1.15,2013-01-07 20:39:00,
2013-01-07 15:44:00,50.3,30.8,30.32,ESE,109,2.0,6.0,47,0.00,,,0.00,Wunderground v.1.15,2013-01-07 20:44:00,
2013-01-07 15:49:00,50.1,30.6,30.32,SSE,163,1.0,6.0,47,0.00,,,0.00,Wunderground v.1.15,2013-01-07 20:49:00,
2013-01-07 15:54:00,49.9,30.5,30.32,SW,219,0.0,3.0,47,0.00,,,0.00,Wunderground v.1.15,2013-01-07 20:54:00,
2013-01-07 15:59:00,49.7,30.8,30.32,ESE,103,4.0,6.0,48,0.00,,,0.00,Wunderground v.1.15,2013-01-07 20:59:00,
2013-01-07 16:04:00,49.7,30.8,30.33,SSE,160,2.0,6.0,48,0.00,,,0.00,Wunderground v.1.15,2013-01-07 21:04:00,
2013-01-07 16:09:00,49.5,30.6,30.33,SE,138,1.0,6.0,48,0.00,,,0.00,Wunderground v.1.15,2013-01-07 21:09:00,
2013-01-07 16:14:00,49.4,30.5,30.33,SSE,167,2.0,2.0,48,0.00,,,0.00,Wunderground v.1.15,2013-01-07 21:14:00,
2013-01-07 16:19:00,49.3,30.4,30.33,SE,126,0.0,4.0,48,0.00,,,0.00,Wunderground v.1.15,2013-01-07 21:19:00,
2013-01-07 16:24:00,49.2,30.8,30.33,ESE,119,4.0,8.0,49,0.00,,,0.00,Wunderground v.1.15,2013-01-07 21:24:00,
2013-01-07 16:29:00,49.1,31.2,30.34,SSE,159,1.0,8.0,50,0.00,,,0.00,Wunderground v.1.15,2013-01-07 21:29:00,
2013-01-07 16:34:00,49.0,31.2,30.34,SSE,159,0.0,2.0,50,0.00,,,0.00,Wunderground v.1.15,2013-01-07 21:34:00,
2013-01-07 16:39:00,49.0,31.2,30.34,SSE,152,1.0,3.0,50,0.00,,,0.00,Wunderground v.1.15,2013-01-07 21:39:00,
2013-01-07 16:44:00,48.7,30.9,30.34,ESE,119,0.0,4.0,50,0.00,,,0.00,Wunderground v.1.15,2013-01-07 21:44:00,
2013-01-07 16:49:00,48.6,30.8,30.34,SE,146,0.0,4.0,50,0.00,,,0.00,Wunderground v.1.15,2013-01-07 21:49:00,
2013-01-07 16:54:00,48.5,31.2,30.34,SE,146,0.0,1.0,51,0.00,,,0.00,Wunderground v.1.15,2013-01-07 21:54:00,
2013-01-07 16:59:00,48.3,31.0,30.34,SE,146,0.0,1.0,51,0.00,,,0.00,Wunderground v.1.15,2013-01-07 21:59:00,
2013-01-07 17:04:00,48.0,30.7,30.35,SE,146,0.0,1.0,51,0.00,,,0.00,Wunderground v.1.15,2013-01-07 22:04:00,
2013-01-07 17:09:00,47.7,30.9,30.35,SE,146,0.0,1.0,52,0.00,,,0.00,Wunderground v.1.15,2013-01-07 22:09:00,
2013-01-07 17:14:00,47.4,31.1,30.35,SE,146,0.0,0.0,53,0.00,,,0.00,Wunderground v.1.15,2013-01-07 22:14:00,
2013-01-07 17:19:00,47.0,31.2,30.35,SE,146,0.0,0.0,54,0.00,,,0.00,Wunderground v.1.15,2013-01-07 22:19:00,
2013-01-07 17:24:00,46.5,31.2,30.35,SE,146,0.0,0.0,55,0.00,,,0.00,Wunderground v.1.15,2013-01-07 22:24:00,
2013-01-07 17:29:00,46.0,31.2,30.36,SE,146,0.0,0.0,56,0.00,,,0.00,Wunderground v.1.15,2013-01-07 22:29:00,
2013-01-07 17:34:00,45.5,31.1,30.36,SE,146,0.0,0.0,57,0.00,,,0.00,Wunderground v.1.15,2013-01-07 22:34:00,
2013-01-07 17:39:00,45.0,31.1,30.36,SE,146,0.0,0.0,58,0.00,,,0.00,Wunderground v.1.15,2013-01-07 22:39:00,
2013-01-07 17:44:00,44.6,30.7,30.36,SE,146,0.0,0.0,58,0.00,,,0.00,Wunderground v.1.15,2013-01-07 22:44:00,
2013-01-07 17:49:00,44.1,30.7,30.37,SE,146,0.0,0.0,59,0.00,,,0.00,Wunderground v.1.15,2013-01-07 22:49:00,
2013-01-07 17:54:00,43.6,31.0,30.37,SE,146,0.0,0.0,61,0.00,,,0.00,Wunderground v.1.15,2013-01-07 22:54:00,
2013-01-07 17:59:00,43.2,30.6,30.37,SE,146,0.0,0.0,61,0.00,,,0.00,Wunderground v.1.15,2013-01-07 22:59:00,
2013-01-07 18:04:00,42.8,30.7,30.38,SE,146,0.0,0.0,62,0.00,,,0.00,Wunderground v.1.15,2013-01-07 23:04:00,
2013-01-07 18:09:00,42.4,30.3,30.38,SE,146,0.0,0.0,62,0.00,,,0.00,Wunderground v.1.15,2013-01-07 23:09:00,
2013-01-07 18:14:00,42.2,30.5,30.38,SE,146,0.0,0.0,63,0.00,,,0.00,Wunderground v.1.15,2013-01-07 23:14:00,
2013-01-07 18:19:00,41.9,30.6,30.38,SE,146,0.0,0.0,64,0.00,,,0.00,Wunderground v.1.15,2013-01-07 23:19:00,
2013-01-07 18:24:00,41.6,29.9,30.38,SE,146,0.0,0.0,63,0.00,,,0.00,Wunderground v.1.15,2013-01-07 23:24:00,
2013-01-07 18:30:00,41.3,30.4,30.39,SE,146,0.0,0.0,65,0.00,,,0.00,Wunderground v.1.15,2013-01-07 23:30:00,
2013-01-07 18:35:00,41.0,30.1,30.38,SE,146,0.0,0.0,65,0.00,,,0.00,Wunderground v.1.15,2013-01-07 23:35:00,
2013-01-07 18:40:00,40.6,29.7,30.38,SE,146,0.0,0.0,65,0.00,,,0.00,Wunderground v.1.15,2013-01-07 23:40:00,
2013-01-07 18:45:00,40.3,30.2,30.39,SE,146,0.0,0.0,67,0.00,,,0.00,Wunderground v.1.15,2013-01-07 23:45:00,
2013-01-07 18:50:00,40.0,29.9,30.38,SE,146,0.0,0.0,67,0.00,,,0.00,Wunderground v.1.15,2013-01-07 23:50:00,
2013-01-07 18:55:00,39.9,30.9,30.38,SE,146,0.0,0.0,70,0.00,,,0.00,Wunderground v.1.15,2013-01-07 23:55:00,
2013-01-07 19:00:00,39.8,30.5,30.39,SE,146,0.0,0.0,69,0.00,,,0.00,Wunderground v.1.15,2013-01-08 00:00:00,
2013-01-07 19:06:00,39.6,31.3,30.39,SE,146,0.0,0.0,72,0.00,,,0.00,Wunderground v.1.15,2013-01-08 00:06:00,
2013-01-07 19:11:00,39.4,31.5,30.39,SE,146,0.0,0.0,73,0.00,,,0.00,Wunderground v.1.15,2013-01-08 00:11:00,
2013-01-07 19:16:00,39.2,31.3,30.39,SE,146,0.0,0.0,73,0.00,,,0.00,Wunderground v.1.15,2013-01-08 00:16:00,
2013-01-07 19:21:00,38.9,31.3,30.39,SE,146,0.0,0.0,74,0.00,,,0.00,Wunderground v.1.15,2013-01-08 00:21:00,
2013-01-07 19:26:00,38.5,30.3,30.39,SE,146,0.0,0.0,72,0.00,,,0.00,Wunderground v.1.15,2013-01-08 00:26:00,
2013-01-07 19:31:00,38.0,29.8,30.39,SE,146,0.0,0.0,72,0.00,,,0.00,Wunderground v.1.15,2013-01-08 00:31:00,
2013-01-07 19:36:00,37.6,29.7,30.39,SE,146,0.0,0.0,73,0.00,,,0.00,Wunderground v.1.15,2013-01-08 00:36:00,
2013-01-07 19:41:00,37.5,30.9,30.39,SE,146,0.0,0.0,77,0.00,,,0.00,Wunderground v.1.15,2013-01-08 00:41:00,
2013-01-07 19:46:00,37.6,31.0,30.39,SE,146,0.0,0.0,77,0.00,,,0.00,Wunderground v.1.15,2013-01-08 00:46:00,
2013-01-07 19:51:00,37.7,31.1,30.39,SE,146,0.0,0.0,77,0.00,,,0.00,Wunderground v.1.15,2013-01-08 00:51:00,
2013-01-07 19:56:00,37.3,29.8,30.39,SE,146,0.0,0.0,74,0.00,,,0.00,Wunderground v.1.15,2013-01-08 00:56:00,
2013-01-07 20:01:00,36.8,30.6,30.37,SE,146,0.0,0.0,78,0.00,,,0.00,Wunderground v.1.15,2013-01-08 01:01:00,
2013-01-07 20:06:00,36.5,29.7,30.37,SE,146,0.0,1.0,76,0.00,,,0.00,Wunderground v.1.15,2013-01-08 01:06:00,
2013-01-07 20:11:00,36.0,29.2,30.37,SE,146,0.0,0.0,76,0.00,,,0.00,Wunderground v.1.15,2013-01-08 01:11:00,
2013-01-07 20:16:00,35.8,30.2,30.37,SE,146,0.0,0.0,80,0.00,,,0.00,Wunderground v.1.15,2013-01-08 01:16:00,
2013-01-07 20:21:00,35.9,30.0,30.36,SE,146,0.0,0.0,79,0.00,,,0.00,Wunderground v.1.15,2013-01-08 01:21:00,
2013-01-07 20:26:00,35.6,29.1,30.37,SE,146,0.0,0.0,77,0.00,,,0.00,Wunderground v.1.15,2013-01-08 01:26:00,
2013-01-07 20:31:00,35.4,29.2,30.37,SE,146,0.0,0.0,78,0.00,,,0.00,Wunderground v.1.15,2013-01-08 01:31:00,
2013-01-07 20:36:00,35.4,29.5,30.37,SE,146,0.0,0.0,79,0.00,,,0.00,Wunderground v.1.15,2013-01-08 01:36:00,
2013-01-07 20:41:00,35.6,30.0,30.37,SE,146,0.0,0.0,80,0.00,,,0.00,Wunderground v.1.15,2013-01-08 01:41:00,
2013-01-07 20:46:00,35.6,29.4,30.37,SE,146,0.0,0.0,78,0.00,,,0.00,Wunderground v.1.15,2013-01-08 01:46:00,
2013-01-07 20:51:00,35.4,29.5,30.37,SE,146,0.0,0.0,79,0.00,,,0.00,Wunderground v.1.15,2013-01-08 01:51:00,
2013-01-07 20:56:00,35.3,29.7,30.37,SE,146,0.0,0.0,80,0.00,,,0.00,Wunderground v.1.15,2013-01-08 01:56:00,
2013-01-07 21:01:00,35.3,30.7,30.37,SE,146,0.0,0.0,83,0.00,,,0.00,Wunderground v.1.15,2013-01-08 02:01:00,
2013-01-07 21:06:00,35.6,30.3,30.37,SE,146,0.0,0.0,81,0.00,,,0.00,Wunderground v.1.15,2013-01-08 02:06:00,
2013-01-07 21:11:00,35.4,29.2,30.37,SE,146,0.0,0.0,78,0.00,,,0.00,Wunderground v.1.15,2013-01-08 02:11:00,
2013-01-07 21:16:00,35.1,29.2,30.37,SE,146,0.0,0.0,79,0.00,,,0.00,Wunderground v.1.15,2013-01-08 02:16:00,
2013-01-07 21:21:00,34.8,29.0,30.37,SE,146,0.0,0.0,79,0.00,,,0.00,Wunderground v.1.15,2013-01-08 02:21:00,
2013-01-07 21:26:00,34.5,28.7,30.37,SE,146,0.0,0.0,79,0.00,,,0.00,Wunderground v.1.15,2013-01-08 02:26:00,
2013-01-07 21:30:00,34.4,28.9,30.37,North,-999,0.0,0.0,80,0.00,,,-99.99,WeatherLink 6.0.0,2013-01-08 02:30:00,
2013-01-07 21:31:00,34.4,28.9,30.37,SE,146,0.0,0.0,80,0.00,,,0.00,Wunderground v.1.15,2013-01-08 02:31:00,
2013-01-07 21:36:00,34.4,29.5,30.37,SE,146,0.0,0.0,82,0.00,,,0.00,Wunderground v.1.15,2013-01-08 02:36:00,
2013-01-07 21:41:00,34.1,28.9,30.37,SE,146,0.0,0.0,81,0.00,,,0.00,Wunderground v.1.15,2013-01-08 02:41:00,
2013-01-07 21:46:00,33.8,28.9,30.37,SE,146,0.0,0.0,82,0.00,,,0.00,Wunderground v.1.15,2013-01-08 02:46:00,
2013-01-07 21:51:00,33.7,28.8,30.37,SE,146,0.0,0.0,82,0.00,,,0.00,Wunderground v.1.15,2013-01-08 02:51:00,
2013-01-07 21:56:00,33.7,28.8,30.38,SE,146,0.0,0.0,82,0.00,,,0.00,Wunderground v.1.15,2013-01-08 02:56:00,
2013-01-07 22:00:00,33.6,29.0,30.38,North,-999,0.0,0.0,83,0.00,,,-99.99,WeatherLink 6.0.0,2013-01-08 03:00:00,
2013-01-07 22:01:00,33.6,29.0,30.38,SE,146,0.0,0.0,83,0.00,,,0.00,Wunderground v.1.15,2013-01-08 03:01:00,
2013-01-07 22:06:00,33.7,29.7,30.38,SE,146,0.0,0.0,85,0.00,,,0.00,Wunderground v.1.15,2013-01-08 03:06:00,
2013-01-07 22:11:00,33.9,29.9,30.38,SE,146,0.0,0.0,85,0.00,,,0.00,Wunderground v.1.15,2013-01-08 03:11:00,
2013-01-07 22:17:00,33.8,30.9,30.37,SE,146,0.0,0.0,89,0.00,,,0.00,Wunderground v.1.15,2013-01-08 03:17:00,
2013-01-07 22:22:00,33.7,29.1,30.37,SE,146,0.0,0.0,83,0.00,,,0.00,Wunderground v.1.15,2013-01-08 03:22:00,
2013-01-07 22:27:00,33.5,28.9,30.38,SE,146,0.0,0.0,83,0.00,,,0.00,Wunderground v.1.15,2013-01-08 03:27:00,
2013-01-07 22:32:00,33.4,29.1,30.38,SE,146,0.0,0.0,84,0.00,,,0.00,Wunderground v.1.15,2013-01-08 03:32:00,
2013-01-07 22:37:00,33.4,29.1,30.38,SE,146,0.0,0.0,84,0.00,,,0.00,Wunderground v.1.15,2013-01-08 03:37:00,
2013-01-07 22:42:00,33.6,29.9,30.39,SE,146,0.0,0.0,86,0.00,,,0.00,Wunderground v.1.15,2013-01-08 03:42:00,
2013-01-07 22:47:00,33.5,29.2,30.38,SE,146,0.0,0.0,84,0.00,,,0.00,Wunderground v.1.15,2013-01-08 03:47:00,
2013-01-07 22:52:00,33.3,29.0,30.38,SE,146,0.0,0.0,84,0.00,,,0.00,Wunderground v.1.15,2013-01-08 03:52:00,
2013-01-07 22:57:00,33.0,28.7,30.38,SE,146,0.0,0.0,84,0.00,,,0.00,Wunderground v.1.15,2013-01-08 03:57:00,
2013-01-07 23:02:00,32.9,28.9,30.38,SE,146,0.0,0.0,85,0.00,,,0.00,Wunderground v.1.15,2013-01-08 04:02:00,
2013-01-07 23:07:00,32.9,29.2,30.38,SE,146,0.0,0.0,86,0.00,,,0.00,Wunderground v.1.15,2013-01-08 04:07:00,
2013-01-07 23:12:00,32.8,29.1,30.38,SE,146,0.0,0.0,86,0.00,,,0.00,Wunderground v.1.15,2013-01-08 04:12:00,
2013-01-07 23:17:00,32.6,28.6,30.38,SE,146,0.0,0.0,85,0.00,,,0.00,Wunderground v.1.15,2013-01-08 04:17:00,
2013-01-07 23:22:00,32.4,28.4,30.38,SE,146,0.0,0.0,85,0.00,,,0.00,Wunderground v.1.15,2013-01-08 04:22:00,
2013-01-07 23:27:00,32.2,28.2,30.38,SE,146,0.0,0.0,85,0.00,,,0.00,Wunderground v.1.15,2013-01-08 04:27:00,
2013-01-07 23:32:00,32.1,28.4,30.38,SE,146,0.0,0.0,86,0.00,,,0.00,Wunderground v.1.15,2013-01-08 04:32:00,
2013-01-07 23:37:00,32.0,28.3,30.38,SE,146,0.0,0.0,86,0.00,,,0.00,Wunderground v.1.15,2013-01-08 04:37:00,
2013-01-07 23:42:00,31.9,28.2,30.38,SE,146,0.0,0.0,86,0.00,,,0.00,Wunderground v.1.15,2013-01-08 04:42:00,
2013-01-07 23:47:00,31.7,28.0,30.38,SE,146,0.0,0.0,86,0.00,,,0.00,Wunderground v.1.15,2013-01-08 04:47:00,
2013-01-07 23:52:00,31.8,28.7,30.38,SE,146,0.0,0.0,88,0.00,,,0.00,Wunderground v.1.15,2013-01-08 04:52:00,
2013-01-07 23:57:00,32.3,29.7,30.38,SE,146,0.0,0.0,90,0.00,,,0.00,Wunderground v.1.15,2013-01-08 04:57:00,